Time;durP1;ratioP1;P1;durP2;ratioP2;P2;SDS_P1;SDS_P2;PMS_P1;PMS_P2;Temp;Humidity;BMP_temperature;BMP_pressure;BME280_temperature;BME280_humidity;BME280_pressure;Samples;Min_cycle;Max_cycle;Signal;HPM_P1;HPM_P2
2023/11/10 00:00:41;;;;;;;3.08;1.63;;;8.70;99.90;;;;;;5080812;28;20836;-36
2023/11/10 00:03:07;;;;;;;2.72;2.20;;;8.70;99.90;;;;;;5080031;28;20034;-36
2023/11/10 00:05:33;;;;;;;2.65;1.55;;;8.70;99.90;;;;;;5080685;28;20169;-36
2023/11/10 00:07:59;;;;;;;2.90;1.90;;;8.70;99.90;;;;;;5083666;28;20112;-37
2023/11/10 00:10:28;;;;;;;1.60;1.50;;;8.70;99.90;;;;;;5084245;28;20024;-37
2023/11/10 00:12:54;;;;;;;2.90;1.85;;;8.70;99.90;;;;;;5085454;28;20034;-36
2023/11/10 00:15:22;;;;;;;3.05;2.08;;;8.70;99.90;;;;;;5084769;28;20070;-36
2023/11/10 00:17:49;;;;;;;4.50;1.70;;;8.70;99.90;;;;;;5084535;28;20024;-37
2023/11/10 00:20:14;;;;;;;2.08;1.77;;;8.80;99.90;;;;;;5083804;28;20044;-36
2023/11/10 00:22:40;;;;;;;3.60;1.80;;;8.80;99.90;;;;;;5084496;28;20076;-37
2023/11/10 00:25:08;;;;;;;2.47;1.38;;;8.80;99.90;;;;;;5083667;28;20060;-37
2023/11/10 00:27:33;;;;;;;2.03;1.83;;;8.80;99.90;;;;;;5084593;28;20401;-37
2023/11/10 00:29:59;;;;;;;2.58;1.80;;;8.80;99.90;;;;;;5083525;28;20576;-36
2023/11/10 00:32:28;;;;;;;4.32;1.85;;;8.80;99.90;;;;;;5084082;28;20035;-36
2023/11/10 00:35:05;;;;;;;3.83;1.70;;;8.90;99.90;;;;;;5084489;28;20020;-36
2023/11/10 00:37:31;;;;;;;2.17;1.60;;;8.90;99.90;;;;;;5083448;28;20020;-36
2023/11/10 00:39:59;;;;;;;4.43;1.73;;;8.90;99.90;;;;;;5084022;28;20032;-38
2023/11/10 00:42:25;;;;;;;1.75;1.50;;;8.90;99.90;;;;;;5084105;28;20531;-35
2023/11/10 00:44:52;;;;;;;4.53;2.05;;;8.90;99.90;;;;;;5083646;28;20558;-36
2023/11/10 00:47:17;;;;;;;2.45;1.88;;;8.90;99.90;;;;;;5083822;28;20088;-35
2023/11/10 00:49:43;;;;;;;5.15;2.42;;;8.90;99.90;;;;;;5083862;28;20482;-35
2023/11/10 00:52:09;;;;;;;4.18;2.28;;;8.90;99.90;;;;;;5083455;28;20016;-37
2023/11/10 00:54:34;;;;;;;4.57;2.13;;;8.90;99.90;;;;;;5084198;28;20053;-35
2023/11/10 00:57:00;;;;;;;4.22;1.90;;;8.90;99.90;;;;;;5084221;28;20016;-36
2023/11/10 00:59:25;;;;;;;3.85;2.05;;;8.90;99.90;;;;;;5083810;28;20054;-36
2023/11/10 01:01:51;;;;;;;2.95;1.83;;;8.90;99.90;;;;;;5083825;28;20476;-37
2023/11/10 01:04:16;;;;;;;3.25;1.70;;;9.00;99.90;;;;;;5083520;28;20024;-36
2023/11/10 01:06:48;;;;;;;5.07;2.10;;;8.90;99.90;;;;;;5083822;28;20032;-36
2023/11/10 01:09:13;;;;;;;2.90;1.70;;;9.00;99.90;;;;;;5063813;28;20034;-36
2023/11/10 01:11:39;;;;;;;2.55;1.52;;;9.00;99.90;;;;;;5078539;28;20020;-38
2023/11/10 01:14:05;;;;;;;2.63;1.65;;;9.00;99.90;;;;;;5082934;28;20046;-36
2023/11/10 01:16:30;;;;;;;4.40;1.95;;;9.00;99.90;;;;;;5083191;28;20376;-36
2023/11/10 01:18:56;;;;;;;3.10;1.60;;;9.00;99.90;;;;;;5081273;28;20032;-36
2023/11/10 01:21:22;;;;;;;3.22;1.60;;;9.00;99.90;;;;;;5083681;28;20024;-35
2023/11/10 01:23:50;;;;;;;2.75;1.70;;;9.10;99.90;;;;;;5084039;28;20016;-36
2023/11/10 01:26:19;;;;;;;3.25;1.60;;;9.10;99.90;;;;;;5081885;28;20032;-37
2023/11/10 01:28:44;;;;;;;1.70;1.40;;;9.10;99.90;;;;;;5083890;28;20020;-36
2023/11/10 01:31:10;;;;;;;2.58;2.15;;;9.10;99.90;;;;;;5082999;28;20356;-36
2023/11/10 01:33:35;;;;;;;2.05;1.50;;;9.10;99.90;;;;;;5082981;28;20124;-35
2023/11/10 01:36:01;;;;;;;2.90;1.48;;;9.10;99.90;;;;;;5083091;28;20047;-35
2023/11/10 01:38:27;;;;;;;7.13;1.75;;;9.10;99.90;;;;;;5082710;28;20031;-35
2023/11/10 01:40:54;;;;;;;4.57;2.05;;;9.10;99.90;;;;;;5082777;28;20026;-37
2023/11/10 01:43:20;;;;;;;4.18;1.98;;;9.10;99.90;;;;;;5082379;28;20047;-36
2023/11/10 01:45:46;;;;;;;2.83;1.30;;;9.10;99.90;;;;;;5082744;28;20102;-36
2023/11/10 01:48:16;;;;;;;2.58;1.50;;;9.10;99.90;;;;;;5081170;28;20044;-35
2023/11/10 01:50:42;;;;;;;1.52;1.23;;;9.10;99.90;;;;;;5083209;28;20044;-35
2023/11/10 01:53:11;;;;;;;2.80;1.27;;;9.10;99.90;;;;;;5080265;28;20032;-42
2023/11/10 01:55:38;;;;;;;1.70;1.17;;;9.10;99.90;;;;;;5083129;28;20024;-37
2023/11/10 01:58:05;;;;;;;2.08;1.20;;;9.10;99.90;;;;;;5082561;28;20024;-35
2023/11/10 02:00:31;;;;;;;2.33;1.38;;;9.10;99.90;;;;;;5082668;28;20847;-35
2023/11/10 02:03:03;;;;;;;3.22;1.20;;;9.10;99.90;;;;;;5081486;28;20024;-35
2023/11/10 02:05:30;;;;;;;2.75;1.15;;;9.20;99.90;;;;;;5064127;28;20028;-37
2023/11/10 02:07:57;;;;;;;1.77;1.20;;;9.20;99.90;;;;;;5082627;28;20020;-36
2023/11/10 02:10:22;;;;;;;2.72;1.10;;;9.20;99.90;;;;;;5081448;28;20090;-37
2023/11/10 02:12:52;;;;;;;1.85;0.90;;;9.20;99.90;;;;;;5082384;28;20781;-35
2023/11/10 02:15:18;;;;;;;2.83;1.08;;;9.20;99.90;;;;;;5081108;28;20027;-36
2023/11/10 02:17:47;;;;;;;2.30;1.20;;;9.20;99.90;;;;;;5082260;28;20012;-36
2023/11/10 02:20:13;;;;;;;3.50;1.23;;;9.20;99.90;;;;;;5082055;28;20032;-36
2023/11/10 02:22:47;;;;;;;2.03;0.98;;;9.20;99.90;;;;;;5082176;28;20020;-36
2023/11/10 02:25:20;;;;;;;1.27;0.90;;;9.30;99.90;;;;;;5081826;28;20016;-36
2023/11/10 02:27:46;;;;;;;;;;;9.20;99.90;;;;;;5082937;28;20383;-37
2023/11/10 02:30:12;;;;;;;1.92;1.00;;;9.30;99.90;;;;;;5081057;28;19929;-37
2023/11/10 02:32:39;;;;;;;2.40;1.08;;;9.20;99.90;;;;;;5082264;28;20032;-37
2023/11/10 02:35:06;;;;;;;2.75;1.20;;;9.20;99.90;;;;;;5081475;28;20031;-37
2023/11/10 02:37:33;;;;;;;3.65;1.40;;;9.30;99.90;;;;;;5081079;28;20027;-37
2023/11/10 02:39:58;;;;;;;5.15;1.20;;;9.20;99.90;;;;;;5081517;28;20048;-36
2023/11/10 02:42:24;;;;;;;1.55;0.93;;;9.20;99.90;;;;;;5082007;28;20146;-37
2023/11/10 02:44:49;;;;;;;3.05;1.02;;;9.20;99.90;;;;;;5081523;28;20391;-37
2023/11/10 02:47:15;;;;;;;1.75;1.00;;;9.20;99.90;;;;;;5081237;28;20044;-36
2023/11/10 02:49:41;;;;;;;1.98;0.88;;;9.20;99.90;;;;;;5073037;28;20028;-36
2023/11/10 02:52:07;;;;;;;1.50;0.98;;;9.20;99.90;;;;;;5076949;28;20024;-36
2023/11/10 02:54:32;;;;;;;2.58;1.13;;;9.20;99.90;;;;;;5075837;28;20067;-37
2023/11/10 02:56:58;;;;;;;2.95;1.10;;;9.20;99.90;;;;;;5074028;28;20051;-37
2023/11/10 02:59:23;;;;;;;3.08;1.20;;;9.30;99.90;;;;;;5077428;28;20056;-36
2023/11/10 03:01:49;;;;;;;3.22;1.00;;;9.30;99.90;;;;;;5072442;28;20036;-35
2023/11/10 03:04:14;;;;;;;3.88;1.10;;;9.30;99.90;;;;;;5079178;28;20468;-36
2023/11/10 03:06:43;;;;;;;1.95;1.17;;;9.20;99.90;;;;;;5069905;28;20031;-36
2023/11/10 03:09:08;;;;;;;1.17;0.90;;;9.30;99.90;;;;;;5080150;28;20148;-37
2023/11/10 03:11:34;;;;;;;2.60;1.25;;;9.20;99.90;;;;;;5068881;28;20146;-35
2023/11/10 03:13:59;;;;;;;2.75;1.40;;;9.30;99.90;;;;;;5080922;28;20024;-36
2023/11/10 03:16:28;;;;;;;2.05;1.10;;;9.30;99.90;;;;;;5067983;28;20012;-36
2023/11/10 03:18:54;;;;;;;1.73;1.17;;;9.30;99.90;;;;;;5080518;28;20029;-38
2023/11/10 03:21:20;;;;;;;2.28;1.25;;;9.30;99.90;;;;;;5068018;28;20042;-37
2023/11/10 03:23:46;;;;;;;2.22;1.15;;;9.30;99.90;;;;;;5081744;28;20032;-37
2023/11/10 03:26:12;;;;;;;2.03;1.40;;;9.30;99.90;;;;;;5075724;28;20028;-36
2023/11/10 03:28:38;;;;;;;2.50;1.27;;;9.30;99.90;;;;;;5063511;28;20025;-36
2023/11/10 03:31:09;;;;;;;2.25;1.10;;;9.30;99.90;;;;;;5069371;28;20043;-37
2023/11/10 03:33:35;;;;;;;1.53;0.90;;;9.30;99.90;;;;;;5064040;28;20786;-36
2023/11/10 03:36:05;;;;;;;4.45;1.23;;;9.20;99.90;;;;;;5068133;28;20020;-36
2023/11/10 03:38:31;;;;;;;2.90;1.23;;;9.30;99.90;;;;;;5066970;28;20111;-36
2023/11/10 03:40:58;;;;;;;2.85;1.13;;;9.30;99.90;;;;;;5064274;28;20028;-37
2023/11/10 03:43:25;;;;;;;2.55;1.35;;;9.30;99.90;;;;;;5068680;28;20029;-43
2023/11/10 03:45:51;;;;;;;2.35;1.10;;;9.30;99.90;;;;;;5063375;28;20028;-37
2023/11/10 03:48:17;;;;;;;1.88;1.00;;;9.30;99.90;;;;;;5070262;28;20045;-37
2023/11/10 03:50:45;;;;;;;2.47;1.10;;;9.30;99.90;;;;;;5062534;28;20031;-36
2023/11/10 03:53:11;;;;;;;1.33;1.08;;;9.30;99.90;;;;;;5071853;28;20597;-37
2023/11/10 03:55:37;;;;;;;2.80;1.15;;;9.30;99.90;;;;;;5061999;28;20021;-37
2023/11/10 03:58:02;;;;;;;1.60;1.02;;;9.30;99.90;;;;;;5070511;28;20348;-37
2023/11/10 04:00:28;;;;;;;2.40;1.00;;;9.30;99.90;;;;;;5080674;28;20202;-37
2023/11/10 04:02:54;;;;;;;2.50;1.27;;;9.30;99.90;;;;;;5066983;28;20048;-36
2023/11/10 04:05:20;;;;;;;3.13;1.33;;;9.30;99.90;;;;;;5080722;28;20020;-36
2023/11/10 04:07:45;;;;;;;1.30;1.10;;;9.30;99.90;;;;;;5068079;28;20028;-36
2023/11/10 04:10:11;;;;;;;2.58;1.20;;;9.30;99.90;;;;;;5079804;28;20463;-37
2023/11/10 04:12:37;;;;;;;2.40;1.38;;;9.30;99.90;;;;;;5070835;28;20526;-36
2023/11/10 04:15:03;;;;;;;1.27;0.82;;;9.30;99.90;;;;;;5076774;28;20024;-37
2023/11/10 04:17:29;;;;;;;2.47;1.20;;;9.30;99.90;;;;;;5073484;28;20028;-36
2023/11/10 04:19:55;;;;;;;1.90;1.20;;;9.30;99.90;;;;;;5075082;28;20114;-38
2023/11/10 04:22:20;;;;;;;1.95;1.23;;;9.20;99.90;;;;;;5077615;28;20024;-36
2023/11/10 04:24:46;;;;;;;0.95;0.85;;;9.20;99.90;;;;;;5068893;28;20020;-37
2023/11/10 04:27:12;;;;;;;1.38;1.10;;;9.20;99.90;;;;;;5061286;28;20098;-37
2023/11/10 04:29:39;;;;;;;2.25;1.20;;;9.20;99.90;;;;;;5070259;28;20036;-37
2023/11/10 04:32:05;;;;;;;3.35;1.20;;;9.20;99.90;;;;;;5061538;28;20020;-36
2023/11/10 04:34:30;;;;;;;1.40;0.80;;;9.20;99.90;;;;;;5071212;28;20111;-37
2023/11/10 04:36:56;;;;;;;2.33;1.02;;;9.20;99.90;;;;;;5059647;28;20073;-36
2023/11/10 04:39:23;;;;;;;1.92;1.10;;;9.20;99.90;;;;;;5071800;28;20028;-36
2023/11/10 04:41:49;;;;;;;1.02;0.90;;;9.20;99.90;;;;;;5060263;28;20028;-35
2023/11/10 04:44:16;;;;;;;2.30;1.30;;;9.20;99.90;;;;;;5071231;28;20081;-37
2023/11/10 04:46:42;;;;;;;3.17;1.30;;;9.20;99.90;;;;;;5060914;28;20833;-35
2023/11/10 04:49:10;;;;;;;1.90;1.05;;;9.20;99.90;;;;;;5080377;28;20123;-37
2023/11/10 04:51:36;;;;;;;1.15;0.93;;;9.20;99.90;;;;;;5059538;28;20033;-38
2023/11/10 04:54:05;;;;;;;2.08;0.90;;;9.20;99.90;;;;;;5077050;28;20016;-37
2023/11/10 04:56:33;;;;;;;1.85;1.02;;;9.20;99.90;;;;;;5083755;28;20028;-35
2023/11/10 04:58:59;;;;;;;2.55;1.00;;;9.20;99.90;;;;;;5083143;28;20131;-37
2023/11/10 05:01:26;;;;;;;0.95;0.85;;;9.20;99.90;;;;;;5083404;28;20369;-38
2023/11/10 05:03:52;;;;;;;3.95;1.25;;;9.20;99.90;;;;;;5082569;28;20133;-36
2023/11/10 05:06:31;;;;;;;3.30;1.13;;;9.20;99.90;;;;;;5082906;28;20042;-36
2023/11/10 05:08:56;;;;;;;3.25;1.00;;;9.20;99.90;;;;;;5083399;28;20562;-37
2023/11/10 05:11:22;;;;;;;2.28;1.00;;;9.20;99.90;;;;;;5082846;28;20027;-37
2023/11/10 05:13:48;;;;;;;2.47;0.95;;;9.20;99.90;;;;;;5083260;28;20016;-38
2023/11/10 05:16:16;;;;;;;1.30;0.90;;;9.20;99.90;;;;;;5082790;28;20043;-35
2023/11/10 05:18:42;;;;;;;1.85;0.90;;;9.20;99.90;;;;;;5082259;28;20789;-36
2023/11/10 05:21:09;;;;;;;2.95;1.02;;;9.20;99.90;;;;;;5083418;28;20027;-37
2023/11/10 05:23:35;;;;;;;2.13;1.23;;;9.20;99.90;;;;;;5083254;28;20016;-36
2023/11/10 05:26:04;;;;;;;2.92;1.13;;;9.20;99.90;;;;;;5082279;28;20524;-35
2023/11/10 05:28:29;;;;;;;2.55;1.20;;;9.20;99.90;;;;;;5083272;28;20114;-36
2023/11/10 05:30:55;;;;;;;3.35;0.98;;;9.10;99.90;;;;;;5082649;28;20042;-46
2023/11/10 05:33:22;;;;;;;2.05;1.02;;;9.20;99.90;;;;;;5082586;28;20501;-37
2023/11/10 05:35:49;;;;;;;3.28;1.40;;;9.10;99.90;;;;;;5081853;28;20106;-37
2023/11/10 05:38:15;;;;;;;3.95;1.25;;;9.10;99.90;;;;;;5082394;28;20024;-37
2023/11/10 05:40:40;;;;;;;2.50;0.95;;;9.20;99.90;;;;;;5081674;28;20059;-36
2023/11/10 05:43:06;;;;;;;3.30;1.08;;;9.10;99.90;;;;;;5082263;28;20055;-36
2023/11/10 05:45:33;;;;;;;1.55;0.90;;;9.20;99.90;;;;;;5081512;28;20044;-37
2023/11/10 05:47:59;;;;;;;3.15;1.33;;;9.10;99.90;;;;;;5081508;28;20052;-37
2023/11/10 05:50:24;;;;;;;2.30;1.45;;;9.20;99.90;;;;;;5076412;28;20475;-37
2023/11/10 05:52:50;;;;;;;1.40;0.88;;;9.10;99.90;;;;;;5074415;28;20032;-38
2023/11/10 05:55:16;;;;;;;3.80;1.25;;;9.10;99.90;;;;;;5078386;28;20039;-37
2023/11/10 05:57:42;;;;;;;2.63;1.08;;;9.10;99.90;;;;;;5073119;28;20051;-35
2023/11/10 06:00:08;;;;;;;2.15;0.90;;;9.10;99.90;;;;;;5081025;28;20898;-36
2023/11/10 06:02:34;;;;;;;3.03;1.00;;;9.10;99.90;;;;;;5070583;28;20020;-35
2023/11/10 06:05:00;;;;;;;2.28;0.82;;;9.10;99.90;;;;;;5079792;28;20028;-36
2023/11/10 06:07:26;;;;;;;1.88;1.10;;;9.10;99.90;;;;;;5070597;28;20020;-36
2023/11/10 06:09:51;;;;;;;3.40;1.10;;;9.10;99.90;;;;;;5082977;28;20449;-36
2023/11/10 06:12:17;;;;;;;2.03;1.13;;;9.10;99.90;;;;;;5069366;28;20038;-35
2023/11/10 06:14:43;;;;;;;2.97;1.10;;;9.10;99.90;;;;;;5082243;28;20038;-36
2023/11/10 06:17:08;;;;;;;2.28;1.08;;;9.00;99.90;;;;;;5069300;28;20543;-35
2023/11/10 06:19:34;;;;;;;3.83;1.15;;;9.00;99.90;;;;;;5082417;28;20040;-35
2023/11/10 06:22:00;;;;;;;2.15;0.90;;;9.00;99.90;;;;;;5071716;28;20390;-36
2023/11/10 06:24:26;;;;;;;2.28;0.90;;;8.90;99.90;;;;;;5080508;28;20036;-36
2023/11/10 06:26:51;;;;;;;2.85;1.00;;;8.90;99.90;;;;;;5074362;28;20468;-38
2023/11/10 06:29:17;;;;;;;2.03;1.00;;;8.80;99.90;;;;;;5075725;28;20448;-36
2023/11/10 06:31:42;;;;;;;1.23;0.68;;;8.80;99.90;;;;;;5076711;28;20040;-37
2023/11/10 06:34:08;;;;;;;1.85;0.80;;;8.80;99.90;;;;;;5073821;28;20031;-37
2023/11/10 06:36:34;;;;;;;1.63;0.80;;;8.80;99.90;;;;;;5078862;28;20039;-36
2023/11/10 06:39:00;;;;;;;1.35;0.90;;;8.70;99.90;;;;;;5071551;28;20096;-37
2023/11/10 06:41:25;;;;;;;2.58;1.45;;;8.70;99.90;;;;;;5079632;28;20031;-37
2023/11/10 06:43:51;;;;;;;1.40;0.93;;;8.60;99.90;;;;;;5069643;28;20024;-37
2023/11/10 06:46:22;;;;;;;1.80;0.90;;;8.50;99.90;;;;;;5081046;28;20035;-37
2023/11/10 06:48:51;;;;;;;0.88;0.63;;;8.50;99.90;;;;;;5075544;28;20083;-37
2023/11/10 06:51:18;;;;;;;1.45;0.75;;;8.40;99.90;;;;;;5080857;28;20093;-36
2023/11/10 06:53:44;;;;;;;2.10;1.17;;;8.30;99.90;;;;;;5080158;28;20416;-37
2023/11/10 06:56:09;;;;;;;2.10;1.05;;;8.40;99.90;;;;;;5081648;28;20059;-37
2023/11/10 06:58:39;;;;;;;2.33;1.10;;;8.40;99.90;;;;;;5080409;28;20673;-37
2023/11/10 07:01:06;;;;;;;3.03;1.08;;;8.40;99.90;;;;;;5081354;28;20056;-37
2023/11/10 07:03:32;;;;;;;4.18;1.15;;;8.40;99.90;;;;;;5080268;28;20062;-36
2023/11/10 07:05:58;;;;;;;1.52;0.85;;;8.40;99.90;;;;;;5080280;28;20143;-37
2023/11/10 07:08:25;;;;;;;3.80;1.20;;;8.40;99.90;;;;;;5081101;28;20055;-35
2023/11/10 07:10:57;;;;;;;2.33;0.88;;;8.30;99.90;;;;;;5080735;28;20024;-36
2023/11/10 07:13:23;;;;;;;2.08;0.80;;;8.30;99.90;;;;;;5080983;28;20024;-35
2023/11/10 07:15:52;;;;;;;1.92;1.10;;;8.40;99.90;;;;;;5080508;28;20035;-36
2023/11/10 07:18:20;;;;;;;3.97;1.17;;;8.40;99.90;;;;;;5079195;28;20031;-35
2023/11/10 07:20:46;;;;;;;2.45;1.00;;;8.40;99.90;;;;;;5081222;28;20194;-36
2023/11/10 07:23:12;;;;;;;2.63;0.90;;;8.40;99.90;;;;;;5079969;28;20764;-36
2023/11/10 07:25:37;;;;;;;4.60;1.30;;;8.50;99.90;;;;;;5079961;28;20030;-37
2023/11/10 07:28:03;;;;;;;2.10;1.17;;;8.50;99.90;;;;;;5080682;28;20070;-36
2023/11/10 07:30:29;;;;;;;1.30;0.95;;;8.60;99.90;;;;;;5080199;28;20077;-36
2023/11/10 07:32:55;;;;;;;2.92;1.20;;;8.70;99.90;;;;;;5079531;28;20031;-37
2023/11/10 07:35:21;;;;;;;4.32;1.50;;;8.70;99.90;;;;;;5080855;28;20024;-37
2023/11/10 07:37:48;;;;;;;2.08;1.10;;;8.80;99.90;;;;;;5081880;28;20528;-41
2023/11/10 07:40:15;;;;;;;3.75;1.48;;;8.80;99.90;;;;;;5079506;28;20043;-35
2023/11/10 07:42:44;;;;;;;2.20;1.05;;;8.80;99.90;;;;;;5081043;28;20543;-37
2023/11/10 07:45:14;;;;;;;2.42;1.00;;;8.90;99.90;;;;;;5081284;28;20042;-37
2023/11/10 07:47:47;;;;;;;1.92;1.00;;;8.90;99.90;;;;;;5080619;28;20130;-36
2023/11/10 07:50:14;;;;;;;2.58;1.20;;;8.90;99.90;;;;;;5080009;28;20108;-36
2023/11/10 07:52:42;;;;;;;3.35;1.50;;;8.90;99.90;;;;;;5061862;28;20031;-36
2023/11/10 07:55:08;;;;;;;2.38;1.50;;;8.90;99.90;;;;;;5074787;28;20027;-36
2023/11/10 07:57:34;;;;;;;3.33;1.42;;;9.00;99.90;;;;;;5080927;28;20061;-36
2023/11/10 08:00:02;;;;;;;2.47;1.10;;;9.00;99.90;;;;;;5080705;28;20107;-36
2023/11/10 08:02:27;;;;;;;2.47;1.30;;;9.00;99.90;;;;;;5080114;28;20039;-35
2023/11/10 08:04:53;;;;;;;3.10;1.05;;;9.00;99.90;;;;;;5080219;28;20020;-36
2023/11/10 08:07:19;;;;;;;3.88;1.95;;;9.00;99.90;;;;;;5079602;28;20028;-36
2023/11/10 08:09:46;;;;;;;2.53;1.13;;;9.00;99.90;;;;;;5080355;28;20028;-37
2023/11/10 08:12:12;;;;;;;3.42;0.90;;;9.00;99.90;;;;;;5079858;28;20039;-36
2023/11/10 08:14:37;;;;;;;1.65;0.93;;;9.00;99.90;;;;;;5079708;28;20028;-37
2023/11/10 08:17:06;;;;;;;3.63;1.58;;;9.10;99.90;;;;;;5080033;28;20028;-36
2023/11/10 08:19:32;;;;;;;1.60;0.88;;;9.10;99.90;;;;;;5079463;28;20051;-36
2023/11/10 08:22:00;;;;;;;2.45;1.00;;;9.10;99.90;;;;;;5079562;28;20031;-36
2023/11/10 08:24:26;;;;;;;3.58;1.08;;;9.10;99.90;;;;;;5080241;28;20055;-37
2023/11/10 08:26:55;;;;;;;1.98;1.00;;;9.10;99.90;;;;;;5080689;28;20533;-35
2023/11/10 08:29:21;;;;;;;2.80;1.00;;;9.20;99.90;;;;;;5083178;28;20580;-36
2023/11/10 08:31:49;;;;;;;2.45;1.30;;;9.20;99.90;;;;;;5084190;28;20036;-36
2023/11/10 08:34:15;;;;;;;3.55;1.40;;;9.10;99.90;;;;;;5083757;28;20035;-36
2023/11/10 08:36:41;;;;;;;2.10;1.20;;;9.20;99.90;;;;;;5083398;28;20035;-35
2023/11/10 08:39:07;;;;;;;2.72;1.05;;;9.20;99.90;;;;;;5082891;28;20024;-37
2023/11/10 08:41:33;;;;;;;1.45;1.10;;;9.20;99.90;;;;;;5083047;28;20231;-36
2023/11/10 08:43:59;;;;;;;2.00;1.55;;;9.20;99.90;;;;;;5083324;28;20074;-37
2023/11/10 08:46:25;;;;;;;2.17;1.10;;;9.20;99.90;;;;;;5083439;28;20020;-37
2023/11/10 08:48:50;;;;;;;1.65;1.10;;;9.30;99.90;;;;;;5069113;28;20483;-36
2023/11/10 08:51:19;;;;;;;3.97;1.70;;;9.30;99.90;;;;;;5066470;28;20828;-34
2023/11/10 08:53:45;;;;;;;3.65;1.73;;;9.30;99.90;;;;;;5071565;28;20031;-35
2023/11/10 08:56:11;;;;;;;3.63;1.52;;;9.30;99.90;;;;;;5064119;28;20044;-35
2023/11/10 08:58:38;;;;;;;3.15;1.20;;;9.30;99.90;;;;;;5073990;28;20082;-36
2023/11/10 09:01:04;;;;;;;3.22;1.50;;;9.30;99.90;;;;;;5064275;28;20032;-36
2023/11/10 09:03:30;;;;;;;3.03;1.30;;;9.40;99.90;;;;;;5074121;28;20454;-36
2023/11/10 09:05:56;;;;;;;3.85;1.15;;;9.40;99.90;;;;;;5064279;28;20694;-35
2023/11/10 09:08:22;;;;;;;2.40;1.30;;;9.50;99.90;;;;;;5074991;28;20114;-37
2023/11/10 09:10:47;;;;;;;3.88;1.40;;;9.50;99.90;;;;;;5062970;28;20487;-37
2023/11/10 09:13:13;;;;;;;3.50;1.48;;;9.50;99.90;;;;;;5075471;28;20020;-37
2023/11/10 09:15:39;;;;;;;3.95;1.27;;;9.50;99.90;;;;;;5063286;28;20404;-38
2023/11/10 09:18:04;;;;;;;4.15;1.55;;;9.60;99.90;;;;;;5074206;28;20404;-37
2023/11/10 09:20:30;;;;;;;4.80;1.58;;;9.60;99.90;;;;;;5063605;28;20390;-37
2023/11/10 09:22:55;;;;;;;5.68;1.80;;;9.60;99.90;;;;;;5071419;28;20480;-36
2023/11/10 09:25:21;;;;;;;5.85;1.85;;;9.60;99.90;;;;;;5065421;28;20029;-37
2023/11/10 09:27:47;;;;;;;4.68;1.67;;;9.60;99.90;;;;;;5069441;28;20020;-36
2023/11/10 09:30:17;;;;;;;2.90;1.33;;;9.70;99.90;;;;;;5067800;28;20789;-37
2023/11/10 09:32:42;;;;;;;4.18;1.63;;;9.70;99.90;;;;;;5066329;28;20016;-37
2023/11/10 09:35:08;;;;;;;5.25;1.67;;;9.80;99.90;;;;;;5070567;28;20043;-37
2023/11/10 09:37:36;;;;;;;5.50;1.63;;;9.70;99.90;;;;;;5065240;28;20104;-38
2023/11/10 09:40:03;;;;;;;4.63;1.50;;;9.70;99.90;;;;;;5071233;28;20044;-37
2023/11/10 09:42:29;;;;;;;5.65;1.50;;;9.70;99.90;;;;;;5063709;28;20107;-38
2023/11/10 09:44:56;;;;;;;4.05;1.10;;;9.70;99.90;;;;;;5073491;28;20033;-37
2023/11/10 09:47:24;;;;;;;5.03;1.15;;;9.70;99.90;;;;;;5067424;28;20044;-37
2023/11/10 09:49:53;;;;;;;3.65;1.60;;;9.70;99.90;;;;;;5080257;28;20024;-37
2023/11/10 09:52:21;;;;;;;5.28;1.40;;;9.70;99.90;;;;;;5083279;28;20426;-36
2023/11/10 09:54:50;;;;;;;5.78;2.00;;;9.70;99.90;;;;;;5082588;28;20046;-37
2023/11/10 09:57:17;;;;;;;3.97;1.50;;;9.70;99.90;;;;;;5082330;28;20024;-37
2023/11/10 09:59:44;;;;;;;3.00;1.25;;;9.80;99.90;;;;;;5081783;28;20832;-37
2023/11/10 10:02:13;;;;;;;5.00;1.52;;;9.90;99.90;;;;;;5082396;28;20043;-37
2023/11/10 10:04:41;;;;;;;3.03;1.30;;;10.00;99.90;;;;;;5082545;28;20024;-37
2023/11/10 10:07:11;;;;;;;4.20;1.60;;;10.00;99.90;;;;;;5082515;28;20028;-37
2023/11/10 10:09:40;;;;;;;2.22;1.48;;;10.10;99.90;;;;;;5082343;28;20024;-38
2023/11/10 10:12:13;;;;;;;3.20;1.35;;;10.10;99.90;;;;;;5082604;28;20565;-43
2023/11/10 10:14:39;;;;;;;5.85;1.63;;;10.10;99.90;;;;;;5082731;28;20067;-37
2023/11/10 10:17:08;;;;;;;3.75;1.40;;;10.10;99.90;;;;;;5082399;28;20495;-37
2023/11/10 10:19:33;;;;;;;5.28;1.20;;;10.10;99.90;;;;;;5082400;28;20040;-38
2023/11/10 10:22:02;;;;;;;3.85;1.40;;;10.10;99.90;;;;;;5081997;28;20386;-37
2023/11/10 10:24:28;;;;;;;5.13;1.50;;;10.10;99.90;;;;;;5082525;28;20028;-37
2023/11/10 10:26:57;;;;;;;3.65;1.25;;;10.10;99.90;;;;;;5082449;28;20023;-37
2023/11/10 10:29:23;;;;;;;3.30;1.40;;;10.00;99.90;;;;;;5081611;28;20073;-38
2023/11/10 10:31:48;;;;;;;5.82;1.60;;;10.00;99.90;;;;;;5082114;28;20746;-36
2023/11/10 10:34:17;;;;;;;3.70;1.25;;;10.00;99.90;;;;;;5080955;28;20066;-36
2023/11/10 10:36:44;;;;;;;5.32;2.05;;;10.00;99.90;;;;;;5081411;28;20032;-37
2023/11/10 10:39:14;;;;;;;5.15;1.40;;;9.80;99.90;;;;;;5081304;28;20101;-36
2023/11/10 10:41:40;;;;;;;2.95;1.23;;;9.80;99.90;;;;;;5081243;28;20032;-36
2023/11/10 10:44:07;;;;;;;2.85;1.40;;;9.80;99.90;;;;;;5082129;28;20406;-37
2023/11/10 10:46:39;;;;;;;1.77;1.00;;;9.70;99.90;;;;;;5081156;28;20413;-36
2023/11/10 10:49:06;;;;;;;4.07;1.58;;;9.70;99.90;;;;;;5080759;28;20046;-37
2023/11/10 10:51:36;;;;;;;3.10;1.40;;;9.70;99.90;;;;;;5081145;28;20136;-37
2023/11/10 10:54:04;;;;;;;3.78;1.60;;;9.70;99.90;;;;;;5080970;28;20131;-37
2023/11/10 10:56:35;;;;;;;5.18;1.55;;;9.70;99.90;;;;;;5080070;28;20032;-37
2023/11/10 10:59:01;;;;;;;3.97;1.20;;;9.70;99.90;;;;;;5080409;28;20530;-37
2023/11/10 11:01:27;;;;;;;2.85;1.17;;;9.70;99.90;;;;;;5080357;28;20028;-37
2023/11/10 11:04:29;;;;;;;6.32;1.70;;;9.70;99.90;;;;;;5080030;28;20031;-39
2023/11/10 11:07:19;;;;;;;1.95;1.15;;;9.60;99.90;;;;;;5080327;28;20028;-39
2023/11/10 11:09:54;;;;;;;2.47;0.93;;;9.70;99.90;;;;;;5080981;28;20055;-38
2023/11/10 11:12:23;;;;;;;4.50;1.40;;;9.70;99.90;;;;;;5080898;28;20138;-37
2023/11/10 11:15:31;;;;;;;1.95;1.23;;;9.70;99.90;;;;;;5081130;28;20051;-37
2023/11/10 11:18:17;;;;;;;3.60;1.15;;;9.60;99.90;;;;;;5078416;28;20032;-37
2023/11/10 11:20:47;;;;;;;2.50;1.30;;;9.60;99.90;;;;;;5080856;28;20036;-37
2023/11/10 11:23:13;;;;;;;1.67;1.08;;;9.50;99.90;;;;;;5079776;28;20040;-37
2023/11/10 11:25:40;;;;;;;2.15;1.13;;;9.50;99.90;;;;;;5080518;28;20024;-39
2023/11/10 11:28:12;;;;;;;3.47;1.40;;;9.50;99.90;;;;;;5080342;28;20020;-37
2023/11/10 11:30:40;;;;;;;3.43;1.40;;;9.50;99.90;;;;;;5080793;28;20059;-37
2023/11/10 11:33:12;;;;;;;4.00;1.25;;;9.40;99.90;;;;;;5079279;28;20039;-36
2023/11/10 11:35:49;;;;;;;2.40;1.10;;;9.50;99.90;;;;;;5081016;28;20046;-37
2023/11/10 11:38:26;;;;;;;2.75;1.40;;;9.50;99.90;;;;;;5079420;28;20508;-37
2023/11/10 11:40:53;;;;;;;2.72;1.48;;;9.50;99.90;;;;;;5080793;28;20055;-37
2023/11/10 11:43:23;;;;;;;3.28;1.50;;;9.50;99.90;;;;;;5080027;28;21408;-37
2023/11/10 11:45:48;;;;;;;3.15;1.20;;;9.50;99.90;;;;;;5080885;28;20021;-36
2023/11/10 11:48:15;;;;;;;6.32;1.63;;;9.50;99.90;;;;;;5068018;28;20055;-37
2023/11/10 11:50:41;;;;;;;4.10;1.33;;;9.50;99.90;;;;;;5080525;28;20036;-37
2023/11/10 11:53:07;;;;;;;3.05;1.20;;;9.50;99.90;;;;;;5068263;28;20039;-37
2023/11/10 11:55:35;;;;;;;3.50;1.40;;;9.50;99.90;;;;;;5079000;28;20028;-37
2023/11/10 11:58:01;;;;;;;3.50;1.25;;;9.60;99.90;;;;;;5071844;28;20039;-39
2023/11/10 12:00:28;;;;;;;2.53;1.30;;;9.60;99.90;;;;;;5075204;28;20040;-38
2023/11/10 12:02:56;;;;;;;3.60;1.15;;;9.60;99.90;;;;;;5073843;28;20460;-37
2023/11/10 12:05:23;;;;;;;4.28;1.55;;;9.60;99.90;;;;;;5074696;28;20056;-37
2023/11/10 12:07:52;;;;;;;4.82;1.33;;;9.60;99.90;;;;;;5076173;28;20024;-37
2023/11/10 12:10:17;;;;;;;2.75;1.52;;;9.60;99.90;;;;;;5072472;28;20031;-37
2023/11/10 12:12:44;;;;;;;1.98;1.35;;;9.60;99.90;;;;;;5078311;28;20702;-38
2023/11/10 12:15:11;;;;;;;3.95;1.42;;;9.60;99.90;;;;;;5069151;28;20835;-38
2023/11/10 12:17:37;;;;;;;2.60;1.23;;;9.60;99.90;;;;;;5079119;28;20023;-38
2023/11/10 12:20:04;;;;;;;3.53;1.45;;;9.60;99.90;;;;;;5067860;28;20411;-37
2023/11/10 12:22:30;;;;;;;3.10;1.00;;;9.70;99.90;;;;;;5079071;28;20083;-38
2023/11/10 12:25:02;;;;;;;2.47;1.40;;;9.60;99.90;;;;;;5067775;28;20128;-38
2023/11/10 12:27:28;;;;;;;2.90;2.05;;;9.70;99.90;;;;;;5079708;28;20090;-37
2023/11/10 12:29:53;;;;;;;2.67;1.67;;;9.70;99.90;;;;;;5067482;28;20706;-38
2023/11/10 12:32:26;;;;;;;3.60;1.40;;;9.70;99.90;;;;;;5061709;28;20657;-38
2023/11/10 12:34:51;;;;;;;2.95;1.52;;;9.70;99.90;;;;;;5066463;28;20025;-38
2023/11/10 12:37:18;;;;;;;2.28;1.10;;;9.70;99.90;;;;;;5079483;28;20028;-37
2023/11/10 12:39:47;;;;;;;4.57;1.33;;;9.80;99.90;;;;;;5068967;28;20033;-38
2023/11/10 12:42:13;;;;;;;3.38;1.65;;;9.80;99.90;;;;;;5078141;28;20143;-37
2023/11/10 12:44:39;;;;;;;3.15;1.52;;;9.80;99.90;;;;;;5070634;28;20024;-37
2023/11/10 12:47:08;;;;;;;2.30;1.38;;;9.80;99.90;;;;;;5076516;28;20423;-36
2023/11/10 12:49:34;;;;;;;2.55;1.17;;;9.80;99.90;;;;;;5071447;28;20028;-37
2023/11/10 12:52:02;;;;;;;2.35;1.27;;;9.80;99.90;;;;;;5074716;28;20369;-37
2023/11/10 12:54:29;;;;;;;3.45;1.70;;;9.90;99.90;;;;;;5074872;28;20021;-38
2023/11/10 12:56:56;;;;;;;2.85;1.42;;;9.90;99.90;;;;;;5071629;28;20049;-36